createdAt,value
2023-05-06T00:03:34.587Z,97855.13
2023-05-06T00:06:06.589Z,97853.41
2023-05-06T00:08:34.316Z,97858.81
2023-05-06T00:11:02.539Z,97855.94
2023-05-06T00:13:30.348Z,97853.72
2023-05-06T00:15:59.487Z,97851.16
2023-05-06T00:18:26.870Z,97854.28
2023-05-06T00:20:53.717Z,97873.38
2023-05-06T00:23:21.019Z,97879.59
2023-05-06T00:25:48.336Z,97890.50
2023-05-06T00:28:16.091Z,97888.19
2023-05-06T00:30:44.396Z,97891.75
2023-05-06T00:33:11.892Z,97882.56
2023-05-06T00:35:40.323Z,97885.94
2023-05-06T00:38:09.537Z,97892.16
2023-05-06T00:40:38.258Z,97891.69
2023-05-06T00:43:05.870Z,97901.53
2023-05-06T00:45:34.240Z,97910.84
2023-05-06T00:48:07.888Z,97916.47
2023-05-06T00:50:38.245Z,97932.41
2023-05-06T00:53:08.232Z,97940.06
2023-05-06T00:55:36.013Z,97942.63
2023-05-06T00:58:05.116Z,97945.78
2023-05-06T01:00:32.479Z,97934.56
2023-05-06T01:02:59.601Z,97929.53
2023-05-06T01:05:46.496Z,97924.75
2023-05-06T01:08:16.963Z,97919.31
2023-05-06T01:10:53.391Z,97913.47
2023-05-06T01:13:43.109Z,97895.72
2023-05-06T01:16:13.833Z,97881.97
2023-05-06T01:18:43.336Z,97899.63
2023-05-06T01:21:12.794Z,97900.59
2023-05-06T01:23:58.506Z,97896.81
2023-05-06T01:26:27.077Z,97899.06
2023-05-06T01:28:55.803Z,97897.13
2023-05-06T01:31:38.134Z,97882.66
2023-05-06T01:34:17.266Z,97893.97
2023-05-06T01:36:59.084Z,97891.94
2023-05-06T01:39:28.815Z,97892.66
2023-05-06T01:41:59.584Z,97899.59
2023-05-06T01:44:29.604Z,97895.09
2023-05-06T01:46:58.955Z,97898.63
2023-05-06T01:49:27.916Z,97901.28
2023-05-06T01:51:57.873Z,97893.75
2023-05-06T01:54:25.254Z,97890.59
2023-05-06T01:56:52.251Z,97882.06
2023-05-06T01:59:20.118Z,97892.78
2023-05-06T02:01:47.357Z,97890.88
2023-05-06T02:04:15.427Z,97888.59
2023-05-06T02:06:44.642Z,97893.53
2023-05-06T02:09:13.633Z,97893.28
2023-05-06T02:11:45.259Z,97892.75
2023-05-06T02:14:12.941Z,97885.84
2023-05-06T02:16:40.661Z,97890.19
2023-05-06T02:19:07.628Z,97894.72
2023-05-06T02:21:35.025Z,97878.97
2023-05-06T02:24:02.904Z,97885.84
2023-05-06T02:26:29.814Z,97884.59
2023-05-06T02:28:58.511Z,97880.22
2023-05-06T02:31:26.091Z,97878.91
2023-05-06T02:33:53.224Z,97874.06
2023-05-06T02:36:22.741Z,97868.59
2023-05-06T02:38:49.811Z,97857.91
2023-05-06T02:41:17.513Z,97863.56
2023-05-06T02:43:45.946Z,97863.56
2023-05-06T02:46:13.018Z,97866.41
2023-05-06T02:48:40.440Z,97867.50
2023-05-06T02:51:07.723Z,97868.19
2023-05-06T02:53:35.208Z,97862.84
2023-05-06T02:56:02.262Z,97861.56
2023-05-06T02:58:29.433Z,97854.53
2023-05-06T03:00:57.453Z,97854.84
2023-05-06T03:03:24.990Z,97866.19
2023-05-06T03:05:51.858Z,97856.63
2023-05-06T03:08:19.176Z,97866.00
2023-05-06T03:10:47.808Z,97855.47
2023-05-06T03:13:17.931Z,97848.31
2023-05-06T03:15:45.180Z,97853.59
2023-05-06T03:18:12.026Z,97847.19
2023-05-06T03:20:40.375Z,97850.56
2023-05-06T03:23:07.557Z,97851.34
2023-05-06T03:25:35.741Z,97845.22
2023-05-06T03:28:04.081Z,97853.84
2023-05-06T03:30:32.703Z,97844.34
2023-05-06T03:33:03.131Z,97861.09
2023-05-06T03:35:32.898Z,97856.38
2023-05-06T03:38:01.616Z,97866.50
2023-05-06T03:40:38.850Z,97862.25
2023-05-06T03:43:07.796Z,97860.50
2023-05-06T03:45:36.147Z,97856.72
2023-05-06T03:48:06.752Z,97867.75
2023-05-06T03:50:39.793Z,97862.00
2023-05-06T03:53:08.953Z,97867.56
2023-05-06T03:55:40.733Z,97868.34
2023-05-06T03:58:08.928Z,97874.00
2023-05-06T04:00:40.589Z,97867.22
2023-05-06T04:03:10.351Z,97874.22
2023-05-06T04:05:46.147Z,97876.09
2023-05-06T04:08:17.836Z,97877.84
2023-05-06T04:10:46.031Z,97871.50
2023-05-06T04:13:37.052Z,97877.03
2023-05-06T04:16:12.865Z,97878.91
2023-05-06T04:18:44.144Z,97886.59
2023-05-06T04:21:14.557Z,97887.34
2023-05-06T04:23:46.395Z,97886.03
2023-05-06T04:26:18.960Z,97893.72
2023-05-06T04:28:47.186Z,97891.34
2023-05-06T04:31:15.757Z,97894.38
2023-05-06T04:33:45.813Z,97901.31
2023-05-06T04:36:18.404Z,97901.16
2023-05-06T04:38:55.280Z,97889.91
2023-05-06T04:41:23.765Z,97899.16
2023-05-06T04:43:51.276Z,97890.59
2023-05-06T04:46:24.247Z,97878.69
2023-05-06T04:48:53.934Z,97878.91
2023-05-06T04:51:22.021Z,97884.84
2023-05-06T04:53:49.990Z,97891.09
2023-05-06T04:56:18.584Z,97881.56
2023-05-06T04:58:47.220Z,97876.28
2023-05-06T05:01:14.475Z,97877.59
2023-05-06T05:03:41.847Z,97875.78
2023-05-06T05:06:11.687Z,97878.47
2023-05-06T05:08:40.471Z,97890.25
2023-05-06T05:11:09.006Z,97895.63
2023-05-06T05:13:36.156Z,97899.31
2023-05-06T05:16:05.322Z,97901.09
2023-05-06T05:18:34.477Z,97902.75
2023-05-06T05:21:08.240Z,97912.78
2023-05-06T05:23:37.862Z,97902.09
2023-05-06T05:26:05.231Z,97896.66
2023-05-06T05:28:32.618Z,97903.00
2023-05-06T05:31:04.509Z,97910.59
2023-05-06T05:33:34.879Z,97911.47
2023-05-06T05:36:05.217Z,97913.78
2023-05-06T05:38:32.621Z,97918.13
2023-05-06T05:41:00.202Z,97906.66
2023-05-06T05:43:27.858Z,97910.69
2023-05-06T05:45:56.775Z,97912.50
2023-05-06T05:48:24.165Z,97912.84
2023-05-06T05:50:51.978Z,97923.59
2023-05-06T05:53:21.753Z,97924.59
2023-05-06T05:55:48.906Z,97927.28
2023-05-06T05:58:16.611Z,97916.91
2023-05-06T06:00:45.257Z,97916.88
2023-05-06T06:03:19.622Z,97919.84
2023-05-06T06:05:46.974Z,97924.69
2023-05-06T06:08:14.730Z,97924.69
2023-05-06T06:10:42.834Z,97924.56
2023-05-06T06:13:17.042Z,97921.38
2023-05-06T06:15:45.111Z,97916.50
2023-05-06T06:18:13.806Z,97914.69
2023-05-06T06:20:41.635Z,97913.50
2023-05-06T06:23:09.111Z,97909.63
2023-05-06T06:25:37.722Z,97920.66
2023-05-06T06:28:05.808Z,97924.16
2023-05-06T06:30:33.194Z,97928.53
2023-05-06T06:33:04.403Z,97930.16
2023-05-06T06:35:31.968Z,97932.59
2023-05-06T06:38:00.482Z,97919.16
2023-05-06T06:40:27.984Z,97936.59
2023-05-06T06:42:55.570Z,97935.97
2023-05-06T06:45:43.003Z,97927.72
2023-05-06T06:48:11.754Z,97941.47
2023-05-06T06:50:40.532Z,97940.47
2023-05-06T06:53:08.685Z,97950.69
2023-05-06T06:55:36.436Z,97953.72
2023-05-06T06:58:06.406Z,97952.03
2023-05-06T07:00:34.852Z,97956.53
2023-05-06T07:03:02.778Z,97953.81
2023-05-06T07:05:30.426Z,97948.31
2023-05-06T07:07:59.642Z,97953.97
2023-05-06T07:10:27.689Z,97949.28
2023-05-06T07:12:57.990Z,97955.28
2023-05-06T07:15:27.018Z,97947.78
2023-05-06T07:17:54.790Z,97949.94
2023-05-06T07:20:23.154Z,97959.44
2023-05-06T07:22:51.621Z,97961.16
2023-05-06T07:25:20.225Z,97968.75
2023-05-06T07:28:14.266Z,97967.94
2023-05-06T07:30:43.482Z,97962.31
2023-05-06T07:33:11.297Z,97962.69
2023-05-06T07:35:40.861Z,97982.72
2023-05-06T07:38:10.415Z,97970.25
2023-05-06T07:40:52.862Z,97979.16
2023-05-06T07:43:24.019Z,97986.25
2023-05-06T07:45:52.437Z,97981.91
2023-05-06T07:48:20.856Z,97983.69
2023-05-06T07:50:48.559Z,97978.91
2023-05-06T07:53:17.566Z,97973.53
2023-05-06T07:55:46.212Z,97976.94
2023-05-06T07:58:13.583Z,97971.31
2023-05-06T08:00:40.891Z,97978.22
2023-05-06T08:03:08.797Z,97988.16
2023-05-06T08:05:39.998Z,97978.31
2023-05-06T08:08:07.626Z,97969.97
2023-05-06T08:10:35.008Z,97979.34
2023-05-06T08:13:02.639Z,97989.03
2023-05-06T08:15:29.861Z,97995.00
2023-05-06T08:18:10.254Z,97994.66
2023-05-06T08:20:45.846Z,98015.44
2023-05-06T08:23:14.998Z,98003.56
2023-05-06T08:25:43.065Z,98004.38
2023-05-06T08:28:11.514Z,98009.78
2023-05-06T08:30:40.252Z,98012.28
2023-05-06T08:33:07.748Z,98020.66
2023-05-06T08:35:36.003Z,98006.31
2023-05-06T08:38:09.853Z,98013.28
2023-05-06T08:40:44.364Z,98008.41
2023-05-06T08:43:22.146Z,98003.16
2023-05-06T08:45:50.975Z,98007.41
2023-05-06T08:48:26.214Z,98011.56
2023-05-06T08:50:56.672Z,98016.06
2023-05-06T08:53:25.964Z,98020.97
2023-05-06T08:55:55.528Z,98024.72
2023-05-06T08:58:26.242Z,98006.28
2023-05-06T09:00:54.424Z,98010.56
2023-05-06T09:03:23.012Z,98018.59
2023-05-06T09:05:50.161Z,98001.13
2023-05-06T09:08:20.773Z,98016.47
2023-05-06T09:10:48.253Z,98007.06
2023-05-06T09:13:19.431Z,98011.59
2023-05-06T09:15:49.557Z,98005.00
2023-05-06T09:18:21.024Z,98009.88
2023-05-06T09:20:50.502Z,98010.91
2023-05-06T09:23:21.304Z,98008.59
2023-05-06T09:25:50.005Z,98009.88
2023-05-06T09:28:18.451Z,98003.84
2023-05-06T09:30:48.594Z,98002.16
2023-05-06T09:33:16.348Z,98001.53
2023-05-06T09:35:46.189Z,97994.88
2023-05-06T09:38:13.826Z,97999.22
2023-05-06T09:40:42.407Z,97997.56
2023-05-06T09:43:13.919Z,97989.56
2023-05-06T09:45:45.302Z,97991.13
2023-05-06T09:48:14.477Z,97983.22
2023-05-06T09:50:44.307Z,97989.66
2023-05-06T09:53:14.285Z,97990.31
2023-05-06T09:56:08.153Z,97992.31
2023-05-06T09:58:50.406Z,97988.59
2023-05-06T10:02:36.511Z,97993.22
2023-05-06T10:06:17.319Z,97980.47
2023-05-06T10:09:43.322Z,97979.13
2023-05-06T10:12:27.593Z,97981.63
2023-05-06T10:15:35.482Z,97978.47
2023-05-06T10:18:14.221Z,97983.88
2023-05-06T10:20:54.272Z,97982.56
2023-05-06T10:23:53.093Z,97977.81
2023-05-06T10:26:26.204Z,97984.97
2023-05-06T10:29:28.604Z,97979.78
2023-05-06T10:32:13.680Z,97963.38
2023-05-06T10:35:18.265Z,97973.75
2023-05-06T10:38:34.641Z,97968.94
2023-05-06T10:41:14.274Z,97960.13
2023-05-06T10:43:51.088Z,97975.28
2023-05-06T10:46:33.813Z,97956.75
2023-05-06T10:49:23.790Z,97968.97
2023-05-06T10:52:43.233Z,97968.72
2023-05-06T10:56:04.838Z,97961.84
2023-05-06T10:59:00.286Z,97964.16
2023-05-06T11:01:47.993Z,97952.00
2023-05-06T11:04:25.053Z,97966.78
2023-05-06T11:07:15.600Z,97969.00
2023-05-06T11:10:01.110Z,97970.13
2023-05-06T11:12:56.194Z,97966.56
2023-05-06T11:15:48.036Z,97967.22
2023-05-06T11:18:30.205Z,97967.19
2023-05-06T11:21:09.097Z,97973.25
2023-05-06T11:23:54.147Z,97969.59
2023-05-06T11:26:27.108Z,97966.06
2023-05-06T11:29:03.670Z,97958.88
2023-05-06T11:31:42.349Z,97961.69
2023-05-06T11:34:33.528Z,97970.34
2023-05-06T11:37:08.864Z,97980.03
2023-05-06T11:39:42.705Z,97975.81
2023-05-06T11:42:12.866Z,97980.13
2023-05-06T11:44:45.959Z,97977.53
2023-05-06T11:47:18.104Z,97956.31
2023-05-06T11:49:56.922Z,97974.53
2023-05-06T11:52:36.309Z,97976.97
2023-05-06T11:55:13.795Z,97980.09
2023-05-06T11:57:56.234Z,97992.56
2023-05-06T12:00:29.640Z,97995.75
2023-05-06T12:03:05.659Z,97987.97
2023-05-06T12:05:40.346Z,97997.75
2023-05-06T12:08:19.879Z,98001.69
2023-05-06T12:11:04.151Z,98004.00
2023-05-06T12:13:34.595Z,98005.19
2023-05-06T12:16:04.888Z,98004.44
2023-05-06T12:18:43.027Z,97994.50
2023-05-06T12:21:15.262Z,98005.44
2023-05-06T12:24:01.658Z,97998.59
2023-05-06T12:26:51.446Z,97988.81
2023-05-06T12:29:22.123Z,97992.13
2023-05-06T12:32:14.675Z,97991.81
2023-05-06T12:34:43.010Z,98005.22
2023-05-06T12:37:25.842Z,97994.97
2023-05-06T12:43:01.021Z,97992.16
2023-05-06T12:45:31.897Z,97994.38
2023-05-06T12:48:07.878Z,97994.78
2023-05-06T12:50:46.890Z,97996.84
2023-05-06T12:53:30.822Z,97989.47
2023-05-06T12:55:59.430Z,97985.63
2023-05-06T12:58:28.840Z,98003.06
2023-05-06T13:00:58.561Z,97992.66
2023-05-06T13:03:27.255Z,97986.50
2023-05-06T13:05:54.572Z,97995.03
2023-05-06T13:08:21.699Z,97989.72
2023-05-06T13:10:48.836Z,98000.72
2023-05-06T13:13:17.012Z,97991.75
2023-05-06T13:15:45.254Z,98002.84
2023-05-06T13:18:12.976Z,97995.13
2023-05-06T13:20:40.471Z,97998.66
2023-05-06T13:23:08.034Z,97998.66
2023-05-06T13:25:39.746Z,98004.50
2023-05-06T13:28:12.054Z,98000.47
2023-05-06T13:30:39.953Z,98008.81
2023-05-06T13:33:07.555Z,98005.09
2023-05-06T13:35:35.764Z,98004.31
2023-05-06T13:38:03.763Z,98005.38
2023-05-06T13:40:34.858Z,97997.66
2023-05-06T13:43:02.649Z,98000.19
2023-05-06T13:45:31.148Z,97989.47
2023-05-06T13:47:59.253Z,97992.84
2023-05-06T13:50:26.602Z,97984.69
2023-05-06T13:52:53.786Z,97998.34
2023-05-06T13:55:21.251Z,97991.56
2023-05-06T13:57:49.130Z,97992.53
2023-05-06T14:00:17.308Z,97987.53
2023-05-06T14:02:51.900Z,97987.16
2023-05-06T14:05:19.985Z,97991.66
2023-05-06T14:07:47.867Z,97981.13
2023-05-06T14:10:16.513Z,97981.34
2023-05-06T14:12:44.187Z,97985.09
2023-05-06T14:15:12.327Z,97979.28
2023-05-06T14:17:39.818Z,97968.84
2023-05-06T14:20:09.070Z,97978.31
2023-05-06T14:22:42.569Z,97978.06
2023-05-06T14:25:10.990Z,97968.41
2023-05-06T14:27:38.428Z,97979.66
2023-05-06T14:30:08.947Z,97973.88
2023-05-06T14:32:37.241Z,97975.63
2023-05-06T14:35:05.801Z,97978.06
2023-05-06T14:37:32.963Z,97979.53
2023-05-06T14:40:00.020Z,97987.00
2023-05-06T14:42:28.456Z,97975.25
2023-05-06T14:44:55.379Z,97973.91
2023-05-06T14:47:22.688Z,97988.31
2023-05-06T14:49:50.412Z,97996.81
2023-05-06T14:52:17.464Z,97988.44
2023-05-06T14:54:44.888Z,97983.13
2023-05-06T14:57:12.659Z,97988.28
2023-05-06T14:59:40.404Z,97982.22
2023-05-06T15:02:09.283Z,97981.84
2023-05-06T15:04:36.692Z,97976.78
2023-05-06T15:07:04.439Z,97991.13
2023-05-06T15:09:32.192Z,97987.53
2023-05-06T15:12:01.448Z,97983.78
2023-05-06T15:14:32.735Z,97984.91
2023-05-06T15:17:02.490Z,97980.16
2023-05-06T15:19:29.870Z,97986.94
2023-05-06T15:21:57.448Z,97988.47
2023-05-06T15:24:24.609Z,97986.97
2023-05-06T15:26:51.714Z,97985.66
2023-05-06T15:29:19.074Z,97995.72
2023-05-06T15:31:46.872Z,97995.50
2023-05-06T15:34:14.426Z,97983.97
2023-05-06T15:36:42.284Z,97979.78
2023-05-06T15:39:09.400Z,97984.19
2023-05-06T15:41:38.267Z,97990.06
2023-05-06T15:44:06.382Z,97992.22
2023-05-06T15:46:33.763Z,97989.75
2023-05-06T15:51:31.065Z,97987.25
2023-05-06T15:53:58.707Z,97992.88
2023-05-06T15:56:27.594Z,97993.56
2023-05-06T15:58:55.872Z,97997.69
2023-05-06T16:01:44.994Z,97989.91
2023-05-06T16:04:10.181Z,97997.25
2023-05-06T16:06:37.332Z,97995.00
2023-05-06T16:09:04.345Z,97999.03
2023-05-06T16:11:31.272Z,97998.19
2023-05-06T16:13:58.432Z,98001.00
2023-05-06T16:16:25.734Z,97999.81
2023-05-06T16:18:52.763Z,97994.13
2023-05-06T16:21:20.097Z,98001.91
2023-05-06T16:23:49.542Z,98003.72
2023-05-06T16:26:18.565Z,97999.88
2023-05-06T16:28:46.538Z,98013.22
2023-05-06T16:31:13.913Z,98006.19
2023-05-06T16:33:41.076Z,98006.31
2023-05-06T16:36:08.428Z,98018.13
2023-05-06T16:38:35.536Z,98014.66
2023-05-06T16:41:02.773Z,98016.09
2023-05-06T16:43:29.780Z,98022.91
2023-05-06T16:45:56.910Z,98013.81
2023-05-06T16:48:27.764Z,98021.28
2023-05-06T16:50:55.660Z,98015.50
2023-05-06T16:53:22.754Z,98028.03
2023-05-06T16:55:50.046Z,98021.19
2023-05-06T16:58:18.340Z,98024.25
2023-05-06T17:00:45.621Z,98030.63
2023-05-06T17:03:12.665Z,98024.78
2023-05-06T17:05:40.651Z,98041.25
2023-05-06T17:08:08.485Z,98036.97
2023-05-06T17:10:35.822Z,98045.94
2023-05-06T17:13:05.204Z,98042.81
2023-05-06T17:15:32.068Z,98046.03
2023-05-06T17:18:00.367Z,98052.47
2023-05-06T17:20:33.670Z,98059.16
2023-05-06T17:23:05.786Z,98051.72
2023-05-06T17:25:33.127Z,98047.50
2023-05-06T17:28:00.692Z,98053.25
2023-05-06T17:30:28.065Z,98043.19
2023-05-06T17:33:03.210Z,98054.25
2023-05-06T17:35:31.365Z,98056.72
2023-05-06T17:37:59.579Z,98063.97
2023-05-06T17:40:27.612Z,98060.47
2023-05-06T17:42:54.875Z,98060.22
2023-05-06T17:45:22.484Z,98071.31
2023-05-06T17:47:51.480Z,98079.94
2023-05-06T17:50:21.619Z,98074.53
2023-05-06T17:52:51.700Z,98072.38
2023-05-06T17:55:25.418Z,98081.47
2023-05-06T17:57:53.802Z,98082.53
2023-05-06T18:00:21.767Z,98086.22
2023-05-06T18:02:48.995Z,98089.06
2023-05-06T18:05:19.014Z,98086.31
2023-05-06T18:07:47.439Z,98092.53
2023-05-06T18:10:17.809Z,98116.03
2023-05-06T18:12:46.643Z,98104.94
2023-05-06T18:15:18.450Z,98119.78
2023-05-06T18:17:49.016Z,98115.13
2023-05-06T18:20:19.596Z,98120.16
2023-05-06T18:22:49.013Z,98121.72
2023-05-06T18:25:20.428Z,98123.81
2023-05-06T18:27:54.776Z,98133.81
2023-05-06T18:30:28.493Z,98143.00
2023-05-06T18:32:59.243Z,98137.13
2023-05-06T18:35:27.565Z,98144.66
2023-05-06T18:37:54.842Z,98142.75
2023-05-06T18:40:22.331Z,98141.97
2023-05-06T18:42:49.232Z,98156.00
2023-05-06T18:45:16.758Z,98154.34
2023-05-06T18:47:44.661Z,98161.69
2023-05-06T18:50:14.588Z,98158.81
2023-05-06T18:52:42.193Z,98163.88
2023-05-06T18:55:10.301Z,98167.06
2023-05-06T18:57:40.832Z,98171.38
2023-05-06T19:00:11.332Z,98179.53
2023-05-06T19:02:38.354Z,98185.09
2023-05-06T19:05:07.568Z,98175.28
2023-05-06T19:07:35.230Z,98178.22
2023-05-06T19:10:03.120Z,98195.91
2023-05-06T19:12:30.984Z,98196.53
2023-05-06T19:14:59.084Z,98188.78
2023-05-06T19:17:27.660Z,98192.44
2023-05-06T19:19:56.151Z,98176.00
2023-05-06T19:22:23.194Z,98188.47
2023-05-06T19:24:52.111Z,98156.44
2023-05-06T19:27:21.075Z,98194.50
2023-05-06T19:29:52.073Z,98195.81
2023-05-06T19:32:26.159Z,98192.66
2023-05-06T19:35:03.494Z,98190.47
2023-05-06T19:37:32.873Z,98187.63
2023-05-06T19:40:02.538Z,98188.97
2023-05-06T19:42:35.397Z,98203.06
2023-05-06T19:45:09.451Z,98202.38
2023-05-06T19:47:42.248Z,98210.44
2023-05-06T19:50:16.048Z,98201.72
2023-05-06T19:52:48.228Z,98207.41
2023-05-06T19:55:19.774Z,98208.78
2023-05-06T19:57:48.890Z,98212.78
2023-05-06T20:01:01.982Z,98219.16
2023-05-06T20:04:03.169Z,98220.66
2023-05-06T20:06:33.879Z,98221.50
2023-05-06T20:09:04.677Z,98219.47
2023-05-06T20:11:40.679Z,98221.50
2023-05-06T20:14:10.325Z,98215.28
2023-05-06T20:16:41.244Z,98227.66
2023-05-06T20:19:10.235Z,98235.25
2023-05-06T20:21:40.640Z,98227.81
2023-05-06T20:24:08.906Z,98226.47
2023-05-06T20:26:36.992Z,98227.13
2023-05-06T20:29:05.110Z,98228.31
2023-05-06T20:31:33.557Z,98223.78
2023-05-06T20:34:01.933Z,98228.09
2023-05-06T20:36:29.740Z,98228.09
2023-05-06T20:39:01.673Z,98230.44
2023-05-06T20:41:29.317Z,98232.94
2023-05-06T20:44:00.856Z,98228.72
2023-05-06T20:46:28.709Z,98241.63
2023-05-06T20:48:57.000Z,98240.78
2023-05-06T20:51:33.585Z,98240.16
2023-05-06T20:54:03.470Z,98239.53
2023-05-06T20:56:31.647Z,98236.03
2023-05-06T20:59:03.571Z,98232.47
2023-05-06T21:02:27.932Z,98240.75
2023-05-06T21:05:02.437Z,98242.13
2023-05-06T21:12:16.771Z,98251.13
2023-05-06T21:14:43.863Z,98240.59
2023-05-06T21:17:10.955Z,98248.72
2023-05-06T21:19:38.332Z,98256.22
2023-05-06T21:22:10.030Z,98252.03
2023-05-06T21:24:37.244Z,98256.75
2023-05-06T21:27:04.368Z,98254.09
2023-05-06T21:29:31.584Z,98255.91
2023-05-06T21:31:59.360Z,98254.31
2023-05-06T21:34:28.521Z,98252.41
2023-05-06T21:36:58.048Z,98255.06
2023-05-06T21:39:26.993Z,98258.09
2023-05-06T21:41:53.909Z,98251.34
2023-05-06T21:44:21.403Z,98250.66
2023-05-06T21:46:48.577Z,98257.16
2023-05-06T21:49:16.286Z,98263.31
2023-05-06T21:51:43.353Z,98261.91
2023-05-06T21:54:10.217Z,98261.72
2023-05-06T21:56:37.243Z,98263.50
2023-05-06T21:59:05.008Z,98262.66
2023-05-06T22:01:32.627Z,98266.13
2023-05-06T22:04:00.780Z,98263.25
2023-05-06T22:06:29.573Z,98267.25
2023-05-06T22:08:56.869Z,98273.59
2023-05-06T22:11:24.838Z,98270.72
2023-05-06T22:13:51.892Z,98267.09
2023-05-06T22:16:19.033Z,98270.31
2023-05-06T22:18:45.909Z,98270.59
2023-05-06T22:21:17.608Z,98272.03
2023-05-06T22:23:44.886Z,98283.78
2023-05-06T22:26:12.212Z,98284.94
2023-05-06T22:28:39.491Z,98278.47
2023-05-06T22:31:06.491Z,98279.31
2023-05-06T22:33:33.381Z,98294.66
2023-05-06T22:36:00.738Z,98284.50
2023-05-06T22:38:27.733Z,98286.31
2023-05-06T22:40:54.699Z,98283.09
2023-05-06T22:43:21.738Z,98287.75
2023-05-06T22:45:48.597Z,98277.50
2023-05-06T22:48:15.784Z,98285.94
2023-05-06T22:50:42.507Z,98282.97
2023-05-06T22:53:14.849Z,98294.75
2023-05-06T22:55:42.908Z,98293.50
2023-05-06T22:58:09.758Z,98289.28
2023-05-06T23:00:36.704Z,98286.75
2023-05-06T23:03:03.642Z,98283.53
2023-05-06T23:05:30.501Z,98281.00
2023-05-06T23:07:57.461Z,98286.78
2023-05-06T23:10:24.352Z,98283.97
2023-05-06T23:12:51.285Z,98281.72
2023-05-06T23:15:18.277Z,98281.41
2023-05-06T23:17:45.236Z,98283.13
2023-05-06T23:20:12.913Z,98284.69
2023-05-06T23:22:40.173Z,98279.03
2023-05-06T23:25:09.239Z,98277.47
2023-05-06T23:27:40.234Z,98270.91
2023-05-06T23:30:08.345Z,98273.97
2023-05-06T23:32:35.343Z,98273.88
2023-05-06T23:35:02.398Z,98271.31
2023-05-06T23:37:29.441Z,98265.56
2023-05-06T23:40:00.188Z,98274.38
2023-05-06T23:42:27.994Z,98275.06
2023-05-06T23:44:54.815Z,98276.44
2023-05-06T23:47:22.306Z,98278.31
2023-05-06T23:49:51.429Z,98267.34
2023-05-06T23:52:18.316Z,98272.13
2023-05-06T23:54:45.673Z,98274.09
2023-05-06T23:57:12.793Z,98276.19
2023-05-06T23:59:40.040Z,98268.75
